• Join FlightAware (Why Join?)
  • Login
  • US Flag 
06:01AM EDT


 

Airport Tracker/Info


-or-


 

Live Flight TrackerFlight Track Log ✈ AAL1459 ✈ 11-Apr-2013 ✈ KBOS - KORD

Flight Track Log - Related Links

Times and Time Zones

All times are in EDT time to prevent confusion due to time zone crossing. See the AAL1459 flight status page for this flight to view local times or setup timezone preferences in your user account.

Time Position Orientation Groundspeed Altitude Reporting Facility
EDT Latitude Longitude Course Direction KTS MPH feet Rate Location/Type
04:05PM 42.3640 -70.9690 76° East 160 184 1,100  Level FlightAware
04:05PM 42.3700 -70.9350 77° East 199 229 1,900 1,860 Climbing FlightAware
04:06PM 42.3760 -70.8970 78° East 227 261 3,000 2,400 Climbing FlightAware
04:06PM 42.3830 -70.8610 75° East 248 285 4,100 2,460 Climbing FlightAware
04:07PM 42.3930 -70.8140 74° East 258 297 5,300 2,220 Climbing FlightAware
04:07PM 42.4060 -70.7980 42° Northeast 268 308 5,800 2,100 Climbing FlightAware
04:07PM 42.4320 -70.7730 35° Northeast 280 322 6,700 2,100 Climbing FlightAware
04:07PM 42.4520 -70.7660 14° North 278 320 7,200 2,520 Climbing FlightAware
04:08PM 42.4860 -70.7790 344° North 259 298 8,600 3,000 Climbing FlightAware
04:08PM 42.5110 -70.8000 328° Northwest 245 282 10,000 2,820 Climbing FlightAware
04:09PM 42.5240 -70.8180 314° West 242 278 10,500 1,260 Climbing FlightAware
04:09PM 42.5540 -70.8730 307° West 291 335 11,200 1,860 Climbing FlightAware
04:10PM 42.5920 -70.9400 308° West 297 342 13,200 2,100 Climbing FlightAware
04:11PM 42.6270 -71.0020 308° West 314 361 14,200 2,220 Climbing FlightAware
04:11PM 42.6660 -71.0710 308° West 307 353 16,400 2,580 Climbing FlightAware
04:12PM 42.7020 -71.1350 307° West 325 374 17,900 2,040 Climbing FlightAware
04:13PM 42.7410 -71.2130 304° West 336 387 19,300 2,040 Climbing FlightAware
04:14PM 42.7520 -71.2950 280° West 341 392 20,800 2,100 Climbing FlightAware
04:14PM 42.7610 -71.3830 278° West 352 405 22,100 1,800 Climbing FlightAware
04:15PM 42.7720 -71.4820 279° West 364 419 23,400 1,740 Climbing FlightAware
04:16PM 42.7810 -71.5710 278° West 368 423 24,600 2,100 Climbing FlightAware
04:16PM 42.7910 -71.6750 277° West 363 418 26,400 2,100 Climbing FlightAware
04:17PM 42.8000 -71.7570 279° West 367 422 27,400 1,560 Climbing FlightAware
04:18PM 42.8110 -71.8650 278° West 374 430 28,500 1,320 Climbing FlightAware
04:18PM 42.8210 -71.9740 277° West 383 441 29,400 1,200 Climbing FlightAware
04:19PM 42.8310 -72.0690 278° West 389 448 30,200 1,380 Climbing FlightAware
04:20PM 42.8400 -72.1680 277° West 387 445 31,300 1,740 Climbing FlightAware
04:21PM 42.8500 -72.2710 278° West 377 434 32,700 1,800 Climbing FlightAware
04:21PM 42.8610 -72.3770 278° West 367 422 34,000 1,680 Climbing FlightAware
04:22PM 42.8690 -72.4690 277° West 360 414 35,100 1,500 Climbing FlightAware
04:23PM 42.8780 -72.5580 278° West 354 407 36,000 600 Climbing FlightAware
04:23PM 42.8870 -72.6550 277° West 357 411 36,000  Level FlightAware
04:24PM 42.8950 -72.7460 277° West 359 413 36,000  Level FlightAware
04:25PM 42.9030 -72.8320 277° West 360 414 36,000  Level FlightAware
04:26PM 42.9130 -72.9490 277° West 361 415 36,000  Level FlightAware
04:26PM 42.9190 -73.0260 276° West 361 415 36,000  Level FlightAware
04:27PM 42.9250 -73.1030 276° West 361 415 36,000  Level FlightAware
04:28PM 42.9320 -73.1990 276° West 361 415 36,000  Level FlightAware
04:28PM 42.9380 -73.2760 276° West 361 415 36,000  Level FlightAware
04:29PM 42.9560 -73.4310 279° West 359 413 36,000  Level FlightAware
04:30PM 42.9650 -73.5330 277° West 359 413 36,000  Level FlightAware
04:31PM 42.9730 -73.6220 277° West 360 414 36,000  Level FlightAware
04:31PM 42.9810 -73.7240 276° West 364 419 36,000 480 Level FlightAware
04:32PM 42.9890 -73.8160 277° West 363 418 36,700 1,080 Climbing FlightAware
04:33PM 42.9960 -73.9000 277° West 355 409 37,500 900 Climbing FlightAware
04:33PM 43.0040 -74.0050 276° West 352 405 38,000 300 Climbing FlightAware
04:34PM 43.0140 -74.1260 276° West 352 405 38,000  Level FlightAware
04:35PM 43.0210 -74.2130 276° West 352 405 38,000  Level FlightAware
04:36PM 43.0300 -74.3340 276° West 350 403 38,000  Level FlightAware
04:37PM 43.0370 -74.4220 276° West 349 402 38,000  Level FlightAware
04:38PM 43.0456 -74.5539 276° West 353 406 38,000  Level Boston Center
04:39PM 43.0556 -74.6850 276° West 353 406 38,000 -60 Level Boston Center
04:40PM 43.0672 -74.8275 276° West 353 406 37,900  Descending Boston Center
04:41PM 43.0769 -74.9586 276° West 353 406 38,000  Climbing Boston Center
04:42PM 43.0844 -75.0925 274° West 353 406 38,000  Level Boston Center
04:43PM 43.0958 -75.2239 277° West 353 406 38,000  Level Boston Center
04:44PM 43.1031 -75.3550 274° West 353 406 38,000 -60 Level Boston Center
04:45PM 43.1119 -75.4864 275° West 353 406 37,900  Descending Boston Center
04:46PM 43.1231 -75.6178 277° West 353 406 38,000  Climbing Boston Center
04:47PM 43.1356 -75.8228 275° West 362 417 38,000  Level Cleveland Center
04:48PM 43.1450 -75.9558 276° West 362 417 38,000  Level Cleveland Center
04:49PM 43.1522 -76.0864 274° West 357 411 38,000  Level Cleveland Center
04:50PM 43.1594 -76.2167 274° West 352 405 38,000  Level Cleveland Center
04:51PM 43.1600 -76.3478 270° West 346 398 38,000  Level Cleveland Center
04:52PM 43.1606 -76.4786 270° West 346 398 38,000  Level Cleveland Center
04:58PM 43.1560 -77.2760 270° West 349 402 38,000  Level FlightAware
04:59PM 43.1560 -77.3710 270° West 348 400 38,000  Level FlightAware
05:00PM 43.1550 -77.4600 269° West 348 400 38,000  Level FlightAware
05:00PM 43.1540 -77.5600 269° West 346 398 38,000  Level FlightAware
05:01PM 43.1530 -77.6460 269° West 345 397 38,000  Level FlightAware
05:02PM 43.1510 -77.7450 268° West 344 396 38,000  Level FlightAware
05:03PM 43.1500 -77.8300 269° West 343 395 38,000  Level FlightAware
05:03PM 43.1490 -77.9170 269° West 343 395 38,000  Level FlightAware
05:04PM 43.1480 -78.0150 269° West 341 392 38,000  Level FlightAware
05:05PM 43.1460 -78.0990 268° West 341 392 38,000  Level FlightAware
05:05PM 43.1450 -78.1900 269° West 341 392 38,000  Level FlightAware
05:06PM 43.1430 -78.2830 268° West 343 395 38,000  Level FlightAware
05:07PM 43.1420 -78.3770 269° West 344 396 38,000  Level FlightAware
05:07PM 43.1390 -78.4670 267° West 344 396 38,000  Level FlightAware
05:08PM 43.1370 -78.5540 268° West 344 396 38,000  Level FlightAware
05:09PM 43.1340 -78.6520 268° West 345 397 38,000  Level FlightAware
05:09PM 43.1320 -78.7290 268° West 345 397 38,000  Level FlightAware
05:10PM 43.1300 -78.8170 268° West 345 397 38,000  Level FlightAware
05:11PM 43.1260 -78.9230 267° West 347 399 38,000  Level FlightAware
05:12PM 43.1240 -79.0140 268° West 348 400 38,000  Level FlightAware
05:12PM 43.1210 -79.1120 268° West 348 400 38,000  Level FlightAware
05:13PM 43.1180 -79.1870 267° West 350 403 38,000  Level FlightAware
05:14PM 43.1150 -79.3000 268° West 352 405 38,000  Level FlightAware
05:14PM 43.1120 -79.3850 267° West 354 407 38,000  Level FlightAware
05:15PM 43.1080 -79.4790 267° West 354 407 38,000  Level FlightAware
05:16PM 43.1050 -79.5790 268° West 352 405 38,000  Level FlightAware
05:17PM 43.1020 -79.6660 267° West 353 406 38,000  Level FlightAware
05:17PM 43.0980 -79.7680 267° West 353 406 38,000  Level FlightAware
05:18PM 43.0950 -79.8570 267° West 353 406 38,000  Level FlightAware
05:19PM 43.0910 -79.9450 266° West 351 404 38,000  Level FlightAware
05:19PM 43.0870 -80.0450 267° West 351 404 38,000  Level FlightAware
05:20PM 43.0840 -80.1340 267° West 350 403 38,000  Level FlightAware
05:21PM 43.0800 -80.2210 266° West 350 403 38,000  Level FlightAware
05:21PM 43.0770 -80.2980 267° West 350 403 38,000  Level FlightAware
05:22PM 43.0730 -80.3970 267° West 351 404 38,000  Level FlightAware
05:23PM 43.0690 -80.4750 266° West 353 406 38,000  Level FlightAware
05:23PM 43.0640 -80.5920 267° West 354 407 38,000  Level FlightAware
05:24PM 43.0600 -80.6820 267° West 354 407 38,000  Level FlightAware
05:25PM 43.0560 -80.7720 267° West 354 407 38,000  Level FlightAware
05:25PM 43.0500 -80.8000 267° West 350 403 38,000  Level Toronto Center
05:26PM 43.0333 -80.9333 260° West 350 403 38,000  Level Toronto Center
05:27PM 43.0167 -81.0500 259° West 350 403 38,000  Level Toronto Center
05:28PM 43.0167 -81.2000 270° West 350 403 38,000  Level Toronto Center
05:29PM 43.0167 -81.3167 270° West 360 414 38,000  Level Toronto Center
05:35PM 43.0180 -82.1500 270° West 355 409 38,000  Level FlightAware
05:36PM 43.0160 -82.2220 268° West 357 411 38,000  Level FlightAware
05:37PM 43.0130 -82.3370 268° West 359 413 38,000  Level FlightAware
05:37PM 43.0100 -82.4460 268° West 360 414 38,000  Level FlightAware
05:38PM 43.0080 -82.5280 268° West 361 415 38,000  Level FlightAware
05:39PM 43.0050 -82.6140 267° West 362 417 38,000  Level FlightAware
05:40PM 43.0020 -82.7310 268° West 362 417 38,000  Level FlightAware
05:40PM 42.9990 -82.8240 268° West 362 417 38,000  Level FlightAware
05:41PM 42.9960 -82.9160 267° West 362 417 38,000  Level FlightAware
05:41PM 42.9930 -83.0010 267° West 361 415 38,000  Level FlightAware
05:42PM 42.9900 -83.0980 268° West 360 414 38,000  Level FlightAware
05:43PM 42.9860 -83.2120 267° West 359 413 38,000  Level FlightAware
05:44PM 42.9840 -83.2780 268° West 359 413 38,000  Level FlightAware
05:44PM 42.9800 -83.3960 267° West 359 413 38,000  Level FlightAware
05:45PM 42.9770 -83.4910 268° West 359 413 38,000 -420 Level FlightAware
05:46PM 42.9740 -83.5630 267° West 358 412 37,500 -1,080 Descending FlightAware
05:47PM 42.9680 -83.7030 267° West 364 419 36,500 -1,080 Descending FlightAware
05:47PM 42.9620 -83.7940 265° West 364 419 35,900 -960 Descending FlightAware
05:48PM 42.9520 -83.8990 263° West 368 423 35,200 -1,020 Descending FlightAware
05:49PM 42.9430 -83.9910 262° West 371 427 34,500 -1,020 Descending FlightAware
05:49PM 42.9340 -84.0840 263° West 373 429 33,900 -960 Descending FlightAware
05:50PM 42.9240 -84.1860 262° West 372 428 33,200 -1,020 Descending FlightAware
05:51PM 42.9150 -84.2800 263° West 377 434 32,500 -900 Descending FlightAware
05:51PM 42.9060 -84.3700 262° West 382 440 32,000 -360 Descending FlightAware
05:52PM 42.8950 -84.4800 262° West 381 438 32,000  Level FlightAware
05:53PM 42.8850 -84.5790 262° West 380 437 32,000  Level FlightAware
05:54PM 42.8740 -84.6830 262° West 381 438 32,000  Level FlightAware
05:54PM 42.8640 -84.7800 262° West 381 438 32,000  Level FlightAware
05:55PM 42.8530 -84.8880 262° West 380 437 32,000  Level FlightAware
05:56PM 42.8430 -84.9770 261° West 380 437 32,000  Level FlightAware
05:56PM 42.8330 -85.0730 262° West 380 437 32,000  Level FlightAware
05:57PM 42.8210 -85.1820 262° West 380 437 32,000 -540 Level FlightAware
05:58PM 42.8110 -85.2770 262° West 380 437 31,300 -1,680 Descending FlightAware
05:58PM 42.8010 -85.3700 262° West 372 428 29,800 -2,400 Descending FlightAware
05:59PM 42.7890 -85.4750 261° West 369 425 27,900 -2,520 Descending FlightAware
06:00PM 42.7750 -85.5640 258° West 362 417 26,300 -2,400 Descending FlightAware
06:00PM 42.7590 -85.6490 256° West 363 418 24,700 -1,860 Descending FlightAware
06:01PM 42.7410 -85.7530 257° West 370 426 23,700 -1,140 Descending FlightAware
06:02PM 42.7270 -85.8290 256° West 361 415 23,200 -960 Descending FlightAware
06:03PM 42.7080 -85.9340 256° West 341 392 22,400 -960 Descending FlightAware
06:03PM 42.6920 -86.0170 255° West 341 392 21,800 -960 Descending FlightAware
06:04PM 42.6750 -86.1110 256° West 334 384 21,100 -900 Descending FlightAware
06:05PM 42.6610 -86.1930 257° West 337 388 20,600 -840 Descending FlightAware
06:05PM 42.6450 -86.2780 256° West 347 399 20,000 -1,140 Descending FlightAware
06:06PM 42.6280 -86.3690 256° West 344 396 19,000 -1,500 Descending FlightAware
06:07PM 42.6120 -86.4540 256° West 342 394 17,900 -1,380 Descending FlightAware
06:08PM 42.5940 -86.5480 255° West 341 392 17,100 -1,200 Descending FlightAware
06:08PM 42.5830 -86.6040 255° West 341 392 16,400 -1,440 Descending FlightAware
06:09PM 42.5630 -86.7110 256° West 338 389 15,200 -1,500 Descending FlightAware
06:10PM 42.5420 -86.7940 251° West 327 376 14,200 -1,440 Descending FlightAware
06:10PM 42.5200 -86.8740 250° West 324 373 13,200 -1,440 Descending FlightAware
06:11PM 42.4960 -86.9610 250° West 332 382 12,100 -1,440 Descending FlightAware
06:12PM 42.4750 -87.0400 250° West 321 369 11,200 -1,380 Descending FlightAware
06:12PM 42.4550 -87.1120 249° West 307 353 10,300 -900 Descending FlightAware
06:13PM 42.4350 -87.1860 250° West 273 314 10,000 -780 Descending FlightAware
06:14PM 42.4250 -87.2230 250° West 267 307 9,400 -1,440 Descending FlightAware
06:14PM 42.4110 -87.2730 249° West 256 295 8,700 -1,800 Descending FlightAware
06:14PM 42.4010 -87.3080 249° West 268 308 7,800 -1,680 Descending FlightAware
06:15PM 42.3880 -87.3570 250° West 262 302 7,200 -1,200 Descending FlightAware
06:15PM 42.3760 -87.4010 250° West 254 292 6,600 -1,020 Descending FlightAware
06:16PM 42.3650 -87.4400 249° West 250 288 6,300 -360 Descending FlightAware
06:16PM 42.3530 -87.4830 249° West 250 288 6,300  Level FlightAware
06:17PM 42.3350 -87.5260 240° Southwest 242 278 6,300  Level FlightAware
06:17PM 42.3290 -87.5300 206° Southwest 242 278 6,300  Level FlightAware
06:18PM 42.2950 -87.5200 168° South 245 282 6,300  Level FlightAware
06:18PM 42.2660 -87.4990 152° Southeast 243 280 6,300 -480 Level FlightAware
06:19PM 42.2250 -87.4700 152° Southeast 241 277 5,800 -780 Descending FlightAware
06:19PM 42.1950 -87.4490 153° Southeast 241 277 5,400 -600 Descending FlightAware
06:20PM 42.1710 -87.4330 154° Southeast 241 277 5,300 -120 Descending FlightAware
06:20PM 42.1510 -87.4200 154° Southeast 238 274 5,300 -480 Level FlightAware
06:20PM 42.1300 -87.4150 170° South 233 268 5,000 -1,080 Descending FlightAware
06:21PM 42.0990 -87.4110 175° South 229 264 4,500 -720 Descending FlightAware
06:21PM 42.0680 -87.4060 173° South 225 259 4,300 -240 Descending FlightAware
06:22PM 42.0490 -87.4030 173° South 214 246 4,300  Level FlightAware
06:22PM 42.0100 -87.4270 205° Southwest 210 242 4,300  Level FlightAware
06:23PM 42.0040 -87.4590 256° West 194 223 4,300  Level FlightAware
06:23PM 42.0020 -87.4920 265° West 177 204 4,300  Level FlightAware
06:24PM 42.0020 -87.5120 270° West 175 201 4,300  Level FlightAware
06:24PM 42.0020 -87.5500 270° West 177 204 4,300  Level FlightAware
06:25PM 42.0020 -87.5850 270° West 176 203 4,300  Level FlightAware
06:25PM 42.0020 -87.6130 270° West 178 205 4,300  Level FlightAware
06:26PM 42.0030 -87.6470 272° West 177 204 4,300 -120 Level FlightAware
06:26PM 42.0030 -87.6750 270° West 175 201 4,200 -600 Descending FlightAware
06:27PM 42.0020 -87.7060 268° West 176 203 3,800 -840 Descending FlightAware
06:27PM 42.0030 -87.7380 272° West 179 206 3,400 -900 Descending FlightAware
06:28PM 42.0030 -87.7650 270° West 176 203 3,000 -1,020 Descending FlightAware
06:28PM 42.0030 -87.7980 270° West 153 176 2,500 -840 Descending FlightAware
06:28PM 42.0030 -87.8130 270° West 150 173 2,300 -780 Descending FlightAware
06:29PM 42.0030 -87.8470 270° West 152 175 1,800 -960 Descending FlightAware
06:29PM 42.0030 -87.8760 270° West 153 176 1,300 -1,020 Descending FlightAware